sensor_id;sensor_type;location;lat;lon;timestamp;P1;durP1;ratioP1;P2;durP2;ratioP2
43098;SDS011;28715;51.988;6.020;2023-03-01T00:01:21;10.40;;;5.97;;
43098;SDS011;28715;51.988;6.020;2023-03-01T00:03:48;10.05;;;6.32;;
43098;SDS011;28715;51.988;6.020;2023-03-01T00:06:14;10.70;;;6.07;;
43098;SDS011;28715;51.988;6.020;2023-03-01T00:08:40;11.87;;;6.00;;
43098;SDS011;28715;51.988;6.020;2023-03-01T00:11:07;11.23;;;6.47;;
43098;SDS011;28715;51.988;6.020;2023-03-01T00:13:36;9.43;;;5.60;;
43098;SDS011;28715;51.988;6.020;2023-03-01T00:16:02;11.43;;;5.68;;
43098;SDS011;28715;51.988;6.020;2023-03-01T00:18:32;9.70;;;6.00;;
43098;SDS011;28715;51.988;6.020;2023-03-01T00:20:58;10.47;;;6.07;;
43098;SDS011;28715;51.988;6.020;2023-03-01T00:23:24;9.85;;;5.93;;
43098;SDS011;28715;51.988;6.020;2023-03-01T00:25:50;10.27;;;6.18;;
43098;SDS011;28715;51.988;6.020;2023-03-01T00:28:17;11.35;;;6.22;;
43098;SDS011;28715;51.988;6.020;2023-03-01T00:30:43;14.23;;;6.43;;
43098;SDS011;28715;51.988;6.020;2023-03-01T00:33:08;9.70;;;5.70;;
43098;SDS011;28715;51.988;6.020;2023-03-01T00:35:34;9.90;;;6.17;;
43098;SDS011;28715;51.988;6.020;2023-03-01T00:38:01;10.52;;;5.95;;
43098;SDS011;28715;51.988;6.020;2023-03-01T00:40:27;10.32;;;6.35;;
43098;SDS011;28715;51.988;6.020;2023-03-01T00:42:53;10.50;;;5.97;;
43098;SDS011;28715;51.988;6.020;2023-03-01T00:45:19;12.07;;;6.03;;
43098;SDS011;28715;51.988;6.020;2023-03-01T00:47:45;11.33;;;6.30;;
43098;SDS011;28715;51.988;6.020;2023-03-01T00:50:11;9.43;;;5.87;;
43098;SDS011;28715;51.988;6.020;2023-03-01T00:52:37;10.35;;;5.50;;
43098;SDS011;28715;51.988;6.020;2023-03-01T00:55:03;11.30;;;6.05;;
43098;SDS011;28715;51.988;6.020;2023-03-01T00:57:29;12.23;;;6.70;;
43098;SDS011;28715;51.988;6.020;2023-03-01T00:59:55;10.18;;;6.32;;
43098;SDS011;28715;51.988;6.020;2023-03-01T01:02:21;10.87;;;6.50;;
43098;SDS011;28715;51.988;6.020;2023-03-01T01:04:47;11.25;;;6.30;;
43098;SDS011;28715;51.988;6.020;2023-03-01T01:07:13;15.70;;;6.87;;
43098;SDS011;28715;51.988;6.020;2023-03-01T01:09:39;14.68;;;7.32;;
43098;SDS011;28715;51.988;6.020;2023-03-01T01:12:05;13.93;;;7.03;;
43098;SDS011;28715;51.988;6.020;2023-03-01T01:14:31;12.43;;;7.13;;
43098;SDS011;28715;51.988;6.020;2023-03-01T01:16:56;11.73;;;6.78;;
43098;SDS011;28715;51.988;6.020;2023-03-01T01:19:23;13.75;;;7.40;;
43098;SDS011;28715;51.988;6.020;2023-03-01T01:21:49;14.30;;;7.57;;
43098;SDS011;28715;51.988;6.020;2023-03-01T01:24:14;12.37;;;7.63;;
43098;SDS011;28715;51.988;6.020;2023-03-01T01:26:41;14.85;;;7.80;;
43098;SDS011;28715;51.988;6.020;2023-03-01T01:29:08;14.73;;;8.00;;
43098;SDS011;28715;51.988;6.020;2023-03-01T01:31:34;15.88;;;7.72;;
43098;SDS011;28715;51.988;6.020;2023-03-01T01:34:04;14.75;;;7.85;;
43098;SDS011;28715;51.988;6.020;2023-03-01T01:36:31;14.02;;;7.97;;
43098;SDS011;28715;51.988;6.020;2023-03-01T01:38:57;13.85;;;8.07;;
43098;SDS011;28715;51.988;6.020;2023-03-01T01:41:23;15.77;;;8.10;;
43098;SDS011;28715;51.988;6.020;2023-03-01T01:49:35;16.45;;;8.82;;
43098;SDS011;28715;51.988;6.020;2023-03-01T01:52:06;18.90;;;9.32;;
43098;SDS011;28715;51.988;6.020;2023-03-01T01:54:47;16.63;;;9.43;;
43098;SDS011;28715;51.988;6.020;2023-03-01T01:57:43;15.43;;;9.32;;
43098;SDS011;28715;51.988;6.020;2023-03-01T02:00:11;14.55;;;9.25;;
43098;SDS011;28715;51.988;6.020;2023-03-01T02:02:40;15.77;;;9.70;;
43098;SDS011;28715;51.988;6.020;2023-03-01T02:08:05;17.77;;;9.63;;
43098;SDS011;28715;51.988;6.020;2023-03-01T02:10:32;17.17;;;9.77;;
43098;SDS011;28715;51.988;6.020;2023-03-01T02:12:59;16.48;;;9.95;;
43098;SDS011;28715;51.988;6.020;2023-03-01T02:15:26;16.98;;;10.18;;
43098;SDS011;28715;51.988;6.020;2023-03-01T02:17:56;15.70;;;9.45;;
43098;SDS011;28715;51.988;6.020;2023-03-01T02:22:51;17.00;;;9.57;;
43098;SDS011;28715;51.988;6.020;2023-03-01T02:25:21;17.10;;;9.02;;
43098;SDS011;28715;51.988;6.020;2023-03-01T02:30:44;17.00;;;9.07;;
43098;SDS011;28715;51.988;6.020;2023-03-01T02:33:32;17.20;;;9.90;;
43098;SDS011;28715;51.988;6.020;2023-03-01T02:36:01;14.65;;;8.98;;
43098;SDS011;28715;51.988;6.020;2023-03-01T02:38:29;16.13;;;9.52;;
43098;SDS011;28715;51.988;6.020;2023-03-01T02:40:56;18.98;;;9.68;;
43098;SDS011;28715;51.988;6.020;2023-03-01T02:43:24;16.40;;;9.57;;
43098;SDS011;28715;51.988;6.020;2023-03-01T02:45:56;20.15;;;10.65;;
43098;SDS011;28715;51.988;6.020;2023-03-01T02:53:37;19.38;;;10.07;;
43098;SDS011;28715;51.988;6.020;2023-03-01T02:56:18;16.17;;;9.63;;
43098;SDS011;28715;51.988;6.020;2023-03-01T02:58:47;19.67;;;9.93;;
43098;SDS011;28715;51.988;6.020;2023-03-01T03:01:17;15.23;;;9.25;;
43098;SDS011;28715;51.988;6.020;2023-03-01T03:03:45;16.05;;;9.65;;
43098;SDS011;28715;51.988;6.020;2023-03-01T03:06:11;15.13;;;9.10;;
43098;SDS011;28715;51.988;6.020;2023-03-01T03:08:37;14.50;;;8.68;;
43098;SDS011;28715;51.988;6.020;2023-03-01T03:11:03;16.10;;;9.30;;
43098;SDS011;28715;51.988;6.020;2023-03-01T03:13:28;17.67;;;9.30;;
43098;SDS011;28715;51.988;6.020;2023-03-01T03:15:57;16.27;;;9.97;;
43098;SDS011;28715;51.988;6.020;2023-03-01T03:18:23;17.00;;;9.02;;
43098;SDS011;28715;51.988;6.020;2023-03-01T03:20:51;17.05;;;9.30;;
43098;SDS011;28715;51.988;6.020;2023-03-01T03:23:18;17.67;;;9.77;;
43098;SDS011;28715;51.988;6.020;2023-03-01T03:25:47;16.45;;;9.23;;
43098;SDS011;28715;51.988;6.020;2023-03-01T03:28:16;15.98;;;9.38;;
43098;SDS011;28715;51.988;6.020;2023-03-01T03:30:42;16.65;;;9.32;;
43098;SDS011;28715;51.988;6.020;2023-03-01T03:33:12;17.45;;;9.10;;
43098;SDS011;28715;51.988;6.020;2023-03-01T03:35:43;16.17;;;8.98;;
43098;SDS011;28715;51.988;6.020;2023-03-01T03:38:12;18.25;;;9.32;;
43098;SDS011;28715;51.988;6.020;2023-03-01T03:40:44;16.50;;;9.18;;
43098;SDS011;28715;51.988;6.020;2023-03-01T03:43:16;14.00;;;8.60;;
43098;SDS011;28715;51.988;6.020;2023-03-01T03:45:43;17.15;;;9.02;;
43098;SDS011;28715;51.988;6.020;2023-03-01T03:48:10;14.75;;;9.00;;
43098;SDS011;28715;51.988;6.020;2023-03-01T03:50:36;13.30;;;8.23;;
43098;SDS011;28715;51.988;6.020;2023-03-01T03:53:03;17.35;;;9.43;;
43098;SDS011;28715;51.988;6.020;2023-03-01T03:55:31;15.15;;;8.82;;
43098;SDS011;28715;51.988;6.020;2023-03-01T03:57:59;16.45;;;9.63;;
43098;SDS011;28715;51.988;6.020;2023-03-01T04:00:31;15.07;;;8.57;;
43098;SDS011;28715;51.988;6.020;2023-03-01T04:02:59;16.10;;;8.93;;
43098;SDS011;28715;51.988;6.020;2023-03-01T04:05:25;14.23;;;8.52;;
43098;SDS011;28715;51.988;6.020;2023-03-01T04:07:51;16.20;;;8.65;;
43098;SDS011;28715;51.988;6.020;2023-03-01T04:10:26;14.85;;;8.60;;
43098;SDS011;28715;51.988;6.020;2023-03-01T04:12:52;15.40;;;9.23;;
43098;SDS011;28715;51.988;6.020;2023-03-01T04:15:21;15.43;;;8.85;;
43098;SDS011;28715;51.988;6.020;2023-03-01T04:17:49;15.10;;;8.35;;
43098;SDS011;28715;51.988;6.020;2023-03-01T04:20:18;16.35;;;8.90;;
43098;SDS011;28715;51.988;6.020;2023-03-01T04:25:48;16.20;;;8.43;;
43098;SDS011;28715;51.988;6.020;2023-03-01T04:28:26;18.05;;;8.82;;
43098;SDS011;28715;51.988;6.020;2023-03-01T04:31:02;14.93;;;8.00;;
43098;SDS011;28715;51.988;6.020;2023-03-01T04:33:38;15.30;;;7.75;;
43098;SDS011;28715;51.988;6.020;2023-03-01T04:36:05;13.52;;;8.32;;
43098;SDS011;28715;51.988;6.020;2023-03-01T04:38:33;14.40;;;8.27;;
43098;SDS011;28715;51.988;6.020;2023-03-01T04:41:02;15.35;;;7.55;;
43098;SDS011;28715;51.988;6.020;2023-03-01T04:43:28;13.93;;;7.53;;
43098;SDS011;28715;51.988;6.020;2023-03-01T04:45:54;13.30;;;7.70;;
43098;SDS011;28715;51.988;6.020;2023-03-01T04:48:19;13.17;;;7.77;;
43098;SDS011;28715;51.988;6.020;2023-03-01T04:50:45;14.73;;;8.00;;
43098;SDS011;28715;51.988;6.020;2023-03-01T04:53:10;14.63;;;7.83;;
43098;SDS011;28715;51.988;6.020;2023-03-01T04:55:36;14.50;;;7.77;;
43098;SDS011;28715;51.988;6.020;2023-03-01T04:58:01;12.13;;;7.37;;
43098;SDS011;28715;51.988;6.020;2023-03-01T05:00:27;14.87;;;7.80;;
43098;SDS011;28715;51.988;6.020;2023-03-01T05:02:54;14.17;;;8.03;;
43098;SDS011;28715;51.988;6.020;2023-03-01T05:05:22;13.77;;;7.68;;
43098;SDS011;28715;51.988;6.020;2023-03-01T05:07:50;15.02;;;8.10;;
43098;SDS011;28715;51.988;6.020;2023-03-01T05:10:17;14.93;;;7.78;;
43098;SDS011;28715;51.988;6.020;2023-03-01T05:12:42;13.37;;;7.67;;
43098;SDS011;28715;51.988;6.020;2023-03-01T05:15:08;14.07;;;7.23;;
43098;SDS011;28715;51.988;6.020;2023-03-01T05:17:34;11.82;;;7.32;;
43098;SDS011;28715;51.988;6.020;2023-03-01T05:20:00;12.73;;;7.78;;
43098;SDS011;28715;51.988;6.020;2023-03-01T05:22:25;16.00;;;8.33;;
43098;SDS011;28715;51.988;6.020;2023-03-01T05:24:51;14.17;;;8.03;;
43098;SDS011;28715;51.988;6.020;2023-03-01T05:27:18;16.75;;;9.15;;
43098;SDS011;28715;51.988;6.020;2023-03-01T05:29:47;15.23;;;8.50;;
43098;SDS011;28715;51.988;6.020;2023-03-01T05:32:13;15.05;;;8.77;;
43098;SDS011;28715;51.988;6.020;2023-03-01T05:34:40;16.95;;;8.73;;
43098;SDS011;28715;51.988;6.020;2023-03-01T05:37:06;16.13;;;8.73;;
43098;SDS011;28715;51.988;6.020;2023-03-01T05:39:35;14.90;;;8.23;;
43098;SDS011;28715;51.988;6.020;2023-03-01T05:42:01;14.77;;;8.25;;
43098;SDS011;28715;51.988;6.020;2023-03-01T05:44:27;17.93;;;9.00;;
43098;SDS011;28715;51.988;6.020;2023-03-01T05:46:54;14.52;;;8.27;;
43098;SDS011;28715;51.988;6.020;2023-03-01T05:49:20;14.77;;;8.37;;
43098;SDS011;28715;51.988;6.020;2023-03-01T05:51:49;14.05;;;8.75;;
43098;SDS011;28715;51.988;6.020;2023-03-01T05:54:16;15.02;;;8.38;;
43098;SDS011;28715;51.988;6.020;2023-03-01T05:56:43;14.13;;;8.32;;
43098;SDS011;28715;51.988;6.020;2023-03-01T05:59:08;14.90;;;7.93;;
43098;SDS011;28715;51.988;6.020;2023-03-01T06:01:34;14.20;;;7.87;;
43098;SDS011;28715;51.988;6.020;2023-03-01T06:04:01;15.00;;;8.30;;
43098;SDS011;28715;51.988;6.020;2023-03-01T06:06:27;15.63;;;8.75;;
43098;SDS011;28715;51.988;6.020;2023-03-01T06:08:53;16.65;;;9.13;;
43098;SDS011;28715;51.988;6.020;2023-03-01T06:11:19;15.20;;;8.97;;
43098;SDS011;28715;51.988;6.020;2023-03-01T06:13:45;16.48;;;8.60;;
43098;SDS011;28715;51.988;6.020;2023-03-01T06:16:11;14.37;;;8.37;;
43098;SDS011;28715;51.988;6.020;2023-03-01T06:18:38;13.88;;;8.00;;
43098;SDS011;28715;51.988;6.020;2023-03-01T06:21:04;14.57;;;7.75;;
43098;SDS011;28715;51.988;6.020;2023-03-01T06:23:31;17.80;;;8.57;;
43098;SDS011;28715;51.988;6.020;2023-03-01T06:25:57;16.40;;;8.55;;
43098;SDS011;28715;51.988;6.020;2023-03-01T06:28:23;15.13;;;8.90;;
43098;SDS011;28715;51.988;6.020;2023-03-01T06:30:49;17.05;;;8.35;;
43098;SDS011;28715;51.988;6.020;2023-03-01T06:33:16;13.30;;;8.00;;
43098;SDS011;28715;51.988;6.020;2023-03-01T06:35:44;17.70;;;8.57;;
43098;SDS011;28715;51.988;6.020;2023-03-01T06:38:13;16.30;;;9.38;;
43098;SDS011;28715;51.988;6.020;2023-03-01T06:40:40;18.05;;;9.18;;
43098;SDS011;28715;51.988;6.020;2023-03-01T06:43:06;17.00;;;9.15;;
43098;SDS011;28715;51.988;6.020;2023-03-01T06:45:32;16.60;;;9.02;;
43098;SDS011;28715;51.988;6.020;2023-03-01T06:48:02;16.63;;;8.45;;
43098;SDS011;28715;51.988;6.020;2023-03-01T06:50:29;16.85;;;8.68;;
43098;SDS011;28715;51.988;6.020;2023-03-01T06:52:55;15.27;;;8.65;;
43098;SDS011;28715;51.988;6.020;2023-03-01T06:55:21;14.55;;;8.43;;
43098;SDS011;28715;51.988;6.020;2023-03-01T06:57:47;15.10;;;7.73;;
43098;SDS011;28715;51.988;6.020;2023-03-01T07:00:13;15.93;;;8.40;;
43098;SDS011;28715;51.988;6.020;2023-03-01T07:02:39;14.55;;;8.20;;
43098;SDS011;28715;51.988;6.020;2023-03-01T07:05:05;15.73;;;8.20;;
43098;SDS011;28715;51.988;6.020;2023-03-01T07:07:30;14.43;;;8.07;;
43098;SDS011;28715;51.988;6.020;2023-03-01T07:09:56;13.40;;;8.17;;
43098;SDS011;28715;51.988;6.020;2023-03-01T07:12:21;15.23;;;7.93;;
43098;SDS011;28715;51.988;6.020;2023-03-01T07:14:47;14.00;;;8.40;;
43098;SDS011;28715;51.988;6.020;2023-03-01T07:17:13;12.50;;;7.90;;
43098;SDS011;28715;51.988;6.020;2023-03-01T07:19:38;12.77;;;7.90;;
43098;SDS011;28715;51.988;6.020;2023-03-01T07:22:04;14.50;;;7.97;;
43098;SDS011;28715;51.988;6.020;2023-03-01T07:24:32;11.75;;;7.57;;
43098;SDS011;28715;51.988;6.020;2023-03-01T07:26:58;11.77;;;7.30;;
43098;SDS011;28715;51.988;6.020;2023-03-01T07:29:23;14.60;;;7.70;;
43098;SDS011;28715;51.988;6.020;2023-03-01T07:31:49;14.97;;;8.03;;
43098;SDS011;28715;51.988;6.020;2023-03-01T07:34:15;11.73;;;7.07;;
43098;SDS011;28715;51.988;6.020;2023-03-01T07:36:40;12.37;;;7.10;;
43098;SDS011;28715;51.988;6.020;2023-03-01T07:39:08;10.68;;;6.45;;
43098;SDS011;28715;51.988;6.020;2023-03-01T07:41:34;11.35;;;7.07;;
43098;SDS011;28715;51.988;6.020;2023-03-01T07:44:00;12.17;;;7.10;;
43098;SDS011;28715;51.988;6.020;2023-03-01T07:46:26;12.47;;;7.27;;
43098;SDS011;28715;51.988;6.020;2023-03-01T07:48:51;11.93;;;7.30;;
43098;SDS011;28715;51.988;6.020;2023-03-01T07:51:17;11.70;;;7.60;;
43098;SDS011;28715;51.988;6.020;2023-03-01T07:53:45;12.67;;;7.43;;
43098;SDS011;28715;51.988;6.020;2023-03-01T07:56:13;12.82;;;7.55;;
43098;SDS011;28715;51.988;6.020;2023-03-01T07:58:40;11.98;;;7.38;;
43098;SDS011;28715;51.988;6.020;2023-03-01T08:01:13;12.93;;;7.40;;
43098;SDS011;28715;51.988;6.020;2023-03-01T08:03:41;11.18;;;6.82;;
43098;SDS011;28715;51.988;6.020;2023-03-01T08:06:08;11.45;;;7.03;;
43098;SDS011;28715;51.988;6.020;2023-03-01T08:08:35;11.32;;;7.25;;
43098;SDS011;28715;51.988;6.020;2023-03-01T08:11:02;13.45;;;7.78;;
43098;SDS011;28715;51.988;6.020;2023-03-01T08:13:28;10.82;;;6.93;;
43098;SDS011;28715;51.988;6.020;2023-03-01T08:16:00;12.52;;;7.50;;
43098;SDS011;28715;51.988;6.020;2023-03-01T08:18:27;14.18;;;7.93;;
43098;SDS011;28715;51.988;6.020;2023-03-01T08:20:52;11.60;;;7.30;;
43098;SDS011;28715;51.988;6.020;2023-03-01T08:23:18;10.83;;;7.27;;
43098;SDS011;28715;51.988;6.020;2023-03-01T08:25:43;10.80;;;6.73;;
43098;SDS011;28715;51.988;6.020;2023-03-01T08:28:09;11.60;;;6.73;;
43098;SDS011;28715;51.988;6.020;2023-03-01T08:30:34;11.00;;;6.30;;
43098;SDS011;28715;51.988;6.020;2023-03-01T08:33:00;11.70;;;6.80;;
43098;SDS011;28715;51.988;6.020;2023-03-01T08:35:25;11.80;;;6.93;;
43098;SDS011;28715;51.988;6.020;2023-03-01T08:37:51;11.67;;;6.83;;
43098;SDS011;28715;51.988;6.020;2023-03-01T08:40:16;10.57;;;6.47;;
43098;SDS011;28715;51.988;6.020;2023-03-01T08:42:42;11.20;;;6.90;;
43098;SDS011;28715;51.988;6.020;2023-03-01T08:45:08;10.37;;;6.90;;
43098;SDS011;28715;51.988;6.020;2023-03-01T08:47:35;11.00;;;6.70;;
43098;SDS011;28715;51.988;6.020;2023-03-01T08:50:01;9.43;;;6.55;;
43098;SDS011;28715;51.988;6.020;2023-03-01T08:52:28;10.63;;;6.85;;
43098;SDS011;28715;51.988;6.020;2023-03-01T08:54:55;10.32;;;6.63;;
43098;SDS011;28715;51.988;6.020;2023-03-01T08:57:20;12.50;;;6.80;;
43098;SDS011;28715;51.988;6.020;2023-03-01T08:59:46;11.10;;;7.10;;
43098;SDS011;28715;51.988;6.020;2023-03-01T09:02:12;9.50;;;6.57;;
43098;SDS011;28715;51.988;6.020;2023-03-01T09:04:40;11.35;;;6.32;;
43098;SDS011;28715;51.988;6.020;2023-03-01T09:07:07;10.07;;;7.22;;
43098;SDS011;28715;51.988;6.020;2023-03-01T09:09:34;10.70;;;7.15;;
43098;SDS011;28715;51.988;6.020;2023-03-01T09:12:00;10.17;;;6.33;;
43098;SDS011;28715;51.988;6.020;2023-03-01T09:14:26;10.43;;;6.45;;
43098;SDS011;28715;51.988;6.020;2023-03-01T09:16:51;10.80;;;6.43;;
43098;SDS011;28715;51.988;6.020;2023-03-01T09:19:17;11.40;;;7.07;;
43098;SDS011;28715;51.988;6.020;2023-03-01T09:21:42;9.60;;;6.07;;
43098;SDS011;28715;51.988;6.020;2023-03-01T09:24:17;8.95;;;6.25;;
43098;SDS011;28715;51.988;6.020;2023-03-01T09:26:45;8.95;;;6.18;;
43098;SDS011;28715;51.988;6.020;2023-03-01T09:29:11;10.98;;;6.68;;
43098;SDS011;28715;51.988;6.020;2023-03-01T09:31:37;10.17;;;6.53;;
43098;SDS011;28715;51.988;6.020;2023-03-01T09:34:03;11.07;;;6.70;;
43098;SDS011;28715;51.988;6.020;2023-03-01T09:36:29;9.77;;;6.03;;
43098;SDS011;28715;51.988;6.020;2023-03-01T09:38:55;9.50;;;6.50;;
43098;SDS011;28715;51.988;6.020;2023-03-01T09:46:56;10.27;;;5.90;;
43098;SDS011;28715;51.988;6.020;2023-03-01T09:49:26;9.43;;;6.00;;
43098;SDS011;28715;51.988;6.020;2023-03-01T09:54:23;9.07;;;6.10;;
43098;SDS011;28715;51.988;6.020;2023-03-01T09:57:06;9.40;;;6.17;;
43098;SDS011;28715;51.988;6.020;2023-03-01T10:00:09;9.20;;;6.13;;
43098;SDS011;28715;51.988;6.020;2023-03-01T10:05:40;10.93;;;7.30;;
43098;SDS011;28715;51.988;6.020;2023-03-01T10:08:24;11.23;;;7.97;;
43098;SDS011;28715;51.988;6.020;2023-03-01T10:11:01;10.35;;;6.82;;
43098;SDS011;28715;51.988;6.020;2023-03-01T10:13:34;11.98;;;7.15;;
43098;SDS011;28715;51.988;6.020;2023-03-01T10:17:01;11.70;;;7.18;;
43098;SDS011;28715;51.988;6.020;2023-03-01T10:19:12;8.10;;;5.97;;
43098;SDS011;28715;51.988;6.020;2023-03-01T10:21:45;10.38;;;6.55;;
43098;SDS011;28715;51.988;6.020;2023-03-01T10:24:15;9.30;;;5.97;;
43098;SDS011;28715;51.988;6.020;2023-03-01T10:29:25;11.32;;;6.50;;
43098;SDS011;28715;51.988;6.020;2023-03-01T10:31:56;8.63;;;5.75;;
43098;SDS011;28715;51.988;6.020;2023-03-01T10:34:27;9.88;;;5.97;;
43098;SDS011;28715;51.988;6.020;2023-03-01T10:36:56;9.00;;;5.80;;
43098;SDS011;28715;51.988;6.020;2023-03-01T10:39:26;9.45;;;6.10;;
43098;SDS011;28715;51.988;6.020;2023-03-01T10:41:53;9.38;;;6.07;;
43098;SDS011;28715;51.988;6.020;2023-03-01T10:44:41;9.05;;;5.88;;
43098;SDS011;28715;51.988;6.020;2023-03-01T10:47:13;7.80;;;5.05;;
43098;SDS011;28715;51.988;6.020;2023-03-01T10:49:52;10.13;;;5.90;;
43098;SDS011;28715;51.988;6.020;2023-03-01T10:52:42;9.30;;;6.10;;
43098;SDS011;28715;51.988;6.020;2023-03-01T10:55:24;8.80;;;5.30;;
43098;SDS011;28715;51.988;6.020;2023-03-01T10:58:05;8.40;;;5.78;;
43098;SDS011;28715;51.988;6.020;2023-03-01T11:00:31;13.20;;;6.28;;
43098;SDS011;28715;51.988;6.020;2023-03-01T11:05:25;8.33;;;5.40;;
43098;SDS011;28715;51.988;6.020;2023-03-01T11:07:54;8.38;;;5.30;;
43098;SDS011;28715;51.988;6.020;2023-03-01T11:10:26;8.48;;;5.35;;
43098;SDS011;28715;51.988;6.020;2023-03-01T11:13:05;11.27;;;5.90;;
43098;SDS011;28715;51.988;6.020;2023-03-01T11:15:33;8.70;;;5.50;;
43098;SDS011;28715;51.988;6.020;2023-03-01T11:17:58;9.13;;;5.43;;
43098;SDS011;28715;51.988;6.020;2023-03-01T11:20:34;7.90;;;5.37;;
43098;SDS011;28715;51.988;6.020;2023-03-01T11:23:03;9.70;;;5.85;;
43098;SDS011;28715;51.988;6.020;2023-03-01T11:25:37;8.52;;;5.50;;
43098;SDS011;28715;51.988;6.020;2023-03-01T11:28:10;10.23;;;6.20;;
43098;SDS011;28715;51.988;6.020;2023-03-01T11:33:18;8.57;;;5.30;;
43098;SDS011;28715;51.988;6.020;2023-03-01T11:36:00;9.27;;;5.85;;
43098;SDS011;28715;51.988;6.020;2023-03-01T11:38:50;10.55;;;6.50;;
43098;SDS011;28715;51.988;6.020;2023-03-01T11:41:18;9.73;;;5.80;;
43098;SDS011;28715;51.988;6.020;2023-03-01T11:43:49;9.38;;;5.90;;
43098;SDS011;28715;51.988;6.020;2023-03-01T11:57:42;11.30;;;6.35;;
43098;SDS011;28715;51.988;6.020;2023-03-01T12:22:34;9.13;;;5.50;;
43098;SDS011;28715;51.988;6.020;2023-03-01T12:47:19;10.95;;;5.78;;
43098;SDS011;28715;51.988;6.020;2023-03-01T12:49:47;9.02;;;5.80;;
43098;SDS011;28715;51.988;6.020;2023-03-01T12:52:46;10.05;;;5.10;;
43098;SDS011;28715;51.988;6.020;2023-03-01T12:55:28;8.75;;;5.28;;
43098;SDS011;28715;51.988;6.020;2023-03-01T12:58:03;8.23;;;5.30;;
43098;SDS011;28715;51.988;6.020;2023-03-01T13:09:23;8.95;;;5.43;;
43098;SDS011;28715;51.988;6.020;2023-03-01T13:11:55;7.90;;;5.05;;
43098;SDS011;28715;51.988;6.020;2023-03-01T13:16:52;8.25;;;5.43;;
43098;SDS011;28715;51.988;6.020;2023-03-01T13:19:20;10.65;;;5.35;;
43098;SDS011;28715;51.988;6.020;2023-03-01T13:21:48;8.30;;;5.32;;
43098;SDS011;28715;51.988;6.020;2023-03-01T13:29:43;10.20;;;5.28;;
43098;SDS011;28715;51.988;6.020;2023-03-01T13:34:48;10.43;;;5.40;;
43098;SDS011;28715;51.988;6.020;2023-03-01T13:37:23;9.07;;;5.10;;
43098;SDS011;28715;51.988;6.020;2023-03-01T13:39:57;9.20;;;5.10;;
43098;SDS011;28715;51.988;6.020;2023-03-01T13:42:40;7.65;;;4.97;;
43098;SDS011;28715;51.988;6.020;2023-03-01T13:45:24;8.45;;;5.55;;
43098;SDS011;28715;51.988;6.020;2023-03-01T13:54:40;10.23;;;5.85;;
43098;SDS011;28715;51.988;6.020;2023-03-01T14:10:02;9.95;;;5.82;;
43098;SDS011;28715;51.988;6.020;2023-03-01T14:12:54;11.77;;;5.90;;
43098;SDS011;28715;51.988;6.020;2023-03-01T14:15:42;8.25;;;5.00;;
43098;SDS011;28715;51.988;6.020;2023-03-01T14:18:29;8.15;;;5.68;;
43098;SDS011;28715;51.988;6.020;2023-03-01T14:21:07;9.70;;;5.18;;
43098;SDS011;28715;51.988;6.020;2023-03-01T14:23:33;9.20;;;5.18;;
43098;SDS011;28715;51.988;6.020;2023-03-01T14:26:00;10.57;;;5.70;;
43098;SDS011;28715;51.988;6.020;2023-03-01T14:28:30;9.20;;;5.73;;
43098;SDS011;28715;51.988;6.020;2023-03-01T14:30:59;9.70;;;5.95;;
43098;SDS011;28715;51.988;6.020;2023-03-01T14:36:02;9.43;;;5.22;;
43098;SDS011;28715;51.988;6.020;2023-03-01T14:41:26;10.38;;;5.93;;
43098;SDS011;28715;51.988;6.020;2023-03-01T14:43:59;8.70;;;5.03;;
43098;SDS011;28715;51.988;6.020;2023-03-01T14:46:41;9.43;;;5.70;;
43098;SDS011;28715;51.988;6.020;2023-03-01T14:49:16;10.25;;;5.55;;
43098;SDS011;28715;51.988;6.020;2023-03-01T14:51:51;10.20;;;5.57;;
43098;SDS011;28715;51.988;6.020;2023-03-01T14:54:41;10.05;;;4.72;;
43098;SDS011;28715;51.988;6.020;2023-03-01T14:57:13;8.07;;;5.03;;
43098;SDS011;28715;51.988;6.020;2023-03-01T14:59:48;11.23;;;5.72;;
43098;SDS011;28715;51.988;6.020;2023-03-01T15:02:19;8.68;;;5.07;;
43098;SDS011;28715;51.988;6.020;2023-03-01T15:04:54;8.57;;;5.20;;
43098;SDS011;28715;51.988;6.020;2023-03-01T15:07:22;8.45;;;5.07;;
43098;SDS011;28715;51.988;6.020;2023-03-01T15:09:54;7.70;;;4.78;;
43098;SDS011;28715;51.988;6.020;2023-03-01T15:14:52;8.70;;;4.70;;
43098;SDS011;28715;51.988;6.020;2023-03-01T15:17:31;7.88;;;4.75;;
43098;SDS011;28715;51.988;6.020;2023-03-01T15:20:00;8.80;;;4.97;;
43098;SDS011;28715;51.988;6.020;2023-03-01T15:22:29;8.55;;;5.30;;
43098;SDS011;28715;51.988;6.020;2023-03-01T15:24:54;9.33;;;5.03;;
43098;SDS011;28715;51.988;6.020;2023-03-01T15:27:21;7.73;;;4.67;;
43098;SDS011;28715;51.988;6.020;2023-03-01T15:29:50;6.78;;;3.85;;
43098;SDS011;28715;51.988;6.020;2023-03-01T15:34:54;8.20;;;4.35;;
43098;SDS011;28715;51.988;6.020;2023-03-01T15:43:00;8.18;;;4.28;;
43098;SDS011;28715;51.988;6.020;2023-03-01T15:45:28;8.80;;;4.30;;
43098;SDS011;28715;51.988;6.020;2023-03-01T15:47:58;7.05;;;4.03;;
43098;SDS011;28715;51.988;6.020;2023-03-01T15:50:29;8.35;;;4.00;;
43098;SDS011;28715;51.988;6.020;2023-03-01T15:53:04;8.55;;;3.60;;
43098;SDS011;28715;51.988;6.020;2023-03-01T15:55:35;7.13;;;4.00;;
43098;SDS011;28715;51.988;6.020;2023-03-01T15:58:18;6.53;;;3.70;;
43098;SDS011;28715;51.988;6.020;2023-03-01T16:00:48;8.23;;;4.28;;
43098;SDS011;28715;51.988;6.020;2023-03-01T16:03:20;9.32;;;4.95;;
43098;SDS011;28715;51.988;6.020;2023-03-01T16:05:47;8.63;;;4.68;;
43098;SDS011;28715;51.988;6.020;2023-03-01T16:08:13;6.90;;;3.80;;
43098;SDS011;28715;51.988;6.020;2023-03-01T16:10:40;7.70;;;4.67;;
43098;SDS011;28715;51.988;6.020;2023-03-01T16:13:08;8.20;;;4.30;;
43098;SDS011;28715;51.988;6.020;2023-03-01T16:15:34;7.60;;;3.97;;
43098;SDS011;28715;51.988;6.020;2023-03-01T16:18:00;7.40;;;4.00;;
43098;SDS011;28715;51.988;6.020;2023-03-01T16:20:27;6.25;;;3.47;;
43098;SDS011;28715;51.988;6.020;2023-03-01T16:22:54;6.40;;;3.80;;
43098;SDS011;28715;51.988;6.020;2023-03-01T16:25:20;7.30;;;3.90;;
43098;SDS011;28715;51.988;6.020;2023-03-01T16:27:47;6.47;;;4.05;;
43098;SDS011;28715;51.988;6.020;2023-03-01T16:30:14;8.80;;;3.65;;
43098;SDS011;28715;51.988;6.020;2023-03-01T16:32:46;6.35;;;3.50;;
43098;SDS011;28715;51.988;6.020;2023-03-01T16:35:13;7.03;;;3.70;;
43098;SDS011;28715;51.988;6.020;2023-03-01T16:37:40;7.13;;;3.72;;
43098;SDS011;28715;51.988;6.020;2023-03-01T16:40:09;6.97;;;3.57;;
43098;SDS011;28715;51.988;6.020;2023-03-01T16:42:42;7.13;;;3.78;;
43098;SDS011;28715;51.988;6.020;2023-03-01T16:45:07;8.57;;;3.97;;
43098;SDS011;28715;51.988;6.020;2023-03-01T16:47:34;7.13;;;3.85;;
43098;SDS011;28715;51.988;6.020;2023-03-01T16:50:00;8.73;;;3.50;;
43098;SDS011;28715;51.988;6.020;2023-03-01T16:52:26;6.03;;;3.33;;
43098;SDS011;28715;51.988;6.020;2023-03-01T16:54:51;7.87;;;4.03;;
43098;SDS011;28715;51.988;6.020;2023-03-01T16:57:17;8.47;;;4.00;;
43098;SDS011;28715;51.988;6.020;2023-03-01T16:59:43;6.93;;;3.65;;
43098;SDS011;28715;51.988;6.020;2023-03-01T17:02:12;6.27;;;3.60;;
43098;SDS011;28715;51.988;6.020;2023-03-01T17:04:39;8.57;;;4.28;;
43098;SDS011;28715;51.988;6.020;2023-03-01T17:07:05;8.07;;;3.80;;
43098;SDS011;28715;51.988;6.020;2023-03-01T17:09:33;7.80;;;3.77;;
43098;SDS011;28715;51.988;6.020;2023-03-01T17:12:01;6.80;;;3.72;;
43098;SDS011;28715;51.988;6.020;2023-03-01T17:14:26;6.83;;;3.70;;
43098;SDS011;28715;51.988;6.020;2023-03-01T17:16:52;9.40;;;4.30;;
43098;SDS011;28715;51.988;6.020;2023-03-01T17:19:17;12.67;;;6.53;;
43098;SDS011;28715;51.988;6.020;2023-03-01T17:21:44;9.15;;;3.88;;